createdAt,value
2023-12-11T00:02:23.108Z,9.90
2023-12-11T00:05:25.719Z,9.88
2023-12-11T00:08:28.366Z,14.45
2023-12-11T00:11:30.927Z,10.40
2023-12-11T00:14:33.950Z,12.25
2023-12-11T00:17:36.557Z,18.55
2023-12-11T00:20:39.187Z,3.67
2023-12-11T00:23:41.757Z,2.80
2023-12-11T00:26:44.342Z,4.68
2023-12-11T00:29:46.926Z,6.55
2023-12-11T00:32:49.427Z,6.53
2023-12-11T00:35:51.917Z,1.13
2023-12-11T00:38:54.512Z,4.68
2023-12-11T00:41:58.543Z,3.73
2023-12-11T00:45:01.151Z,10.77
2023-12-11T00:48:03.778Z,6.22
2023-12-11T00:51:06.454Z,8.75
2023-12-11T00:54:08.965Z,7.03
2023-12-11T00:57:12.596Z,8.52
2023-12-11T01:00:15.287Z,2.42
2023-12-11T01:03:17.850Z,4.57
2023-12-11T01:06:20.451Z,6.97
2023-12-11T01:09:22.861Z,6.47
2023-12-11T01:12:25.695Z,6.20
2023-12-11T01:15:28.153Z,4.22
2023-12-11T01:18:30.854Z,11.60
2023-12-11T01:21:33.491Z,15.15
2023-12-11T01:24:36.006Z,6.20
2023-12-11T01:27:38.654Z,8.80
2023-12-11T01:30:41.256Z,7.10
2023-12-11T01:33:43.776Z,6.60
2023-12-11T01:36:46.292Z,7.90
2023-12-11T01:39:48.890Z,5.57
2023-12-11T01:42:52.474Z,13.87
2023-12-11T01:46:12.337Z,12.43
2023-12-11T01:49:15.160Z,8.65
2023-12-11T01:52:18.118Z,11.93
2023-12-11T01:55:20.771Z,3.83
2023-12-11T01:58:23.876Z,17.40
2023-12-11T02:01:27.651Z,8.63
2023-12-11T02:04:31.418Z,9.97
2023-12-11T02:07:34.020Z,12.02
2023-12-11T02:10:37.475Z,9.52
2023-12-11T02:13:41.517Z,14.40
2023-12-11T02:16:43.973Z,10.90
2023-12-11T02:19:46.474Z,12.98
2023-12-11T02:22:49.198Z,6.07
2023-12-11T02:26:00.711Z,13.32
2023-12-11T02:29:03.645Z,6.85
2023-12-11T02:32:06.472Z,17.10
2023-12-11T02:35:09.078Z,5.97
2023-12-11T02:38:11.602Z,20.73
2023-12-11T02:41:14.182Z,6.15
2023-12-11T02:44:16.675Z,15.83
2023-12-11T02:47:19.157Z,14.40
2023-12-11T02:50:21.725Z,9.60
2023-12-11T02:53:24.268Z,16.10
2023-12-11T02:56:26.775Z,4.63
2023-12-11T02:59:29.327Z,15.95
2023-12-11T03:02:31.808Z,13.70
2023-12-11T03:05:34.572Z,4.80
2023-12-11T03:08:40.749Z,10.32
2023-12-11T03:11:43.276Z,9.85
2023-12-11T03:14:45.691Z,9.50
2023-12-11T03:17:48.467Z,13.30
2023-12-11T03:20:50.944Z,11.00
2023-12-11T03:23:53.503Z,8.45
2023-12-11T03:26:56.032Z,10.38
2023-12-11T03:29:58.524Z,17.48
2023-12-11T03:33:01.099Z,14.20
2023-12-11T03:36:03.791Z,14.47
2023-12-11T03:39:08.731Z,23.60
2023-12-11T03:42:11.365Z,23.48
2023-12-11T03:45:13.822Z,21.03
2023-12-11T03:48:16.357Z,9.73
2023-12-11T03:51:18.897Z,8.43
2023-12-11T03:54:21.427Z,9.57
2023-12-11T03:57:23.899Z,14.95
2023-12-11T04:00:26.421Z,16.80
2023-12-11T04:03:28.904Z,23.00
2023-12-11T04:06:31.663Z,19.07
2023-12-11T04:09:34.320Z,14.18
2023-12-11T04:12:36.801Z,24.80
2023-12-11T04:15:39.338Z,16.33
2023-12-11T04:18:42.424Z,10.07
2023-12-11T04:21:44.946Z,22.98
2023-12-11T04:24:47.437Z,12.73
2023-12-11T04:27:49.959Z,16.67
2023-12-11T04:30:52.829Z,12.48
2023-12-11T04:33:55.581Z,13.63
2023-12-11T04:36:58.137Z,14.70
2023-12-11T04:40:00.693Z,23.77
2023-12-11T04:43:03.244Z,12.95
2023-12-11T04:46:05.849Z,13.63
2023-12-11T04:49:08.441Z,18.25
2023-12-11T04:52:11.004Z,16.95
2023-12-11T04:55:13.654Z,13.68
2023-12-11T04:58:16.248Z,21.52
2023-12-11T05:01:18.917Z,9.40
2023-12-11T05:04:21.664Z,20.17
2023-12-11T05:07:24.281Z,8.80
2023-12-11T05:10:26.823Z,6.97
2023-12-11T05:13:29.332Z,16.42
2023-12-11T05:16:31.840Z,5.03
2023-12-11T05:19:36.939Z,14.90
2023-12-11T05:22:39.915Z,18.83
2023-12-11T05:25:42.435Z,11.00
2023-12-11T05:28:44.977Z,13.63
2023-12-11T05:31:47.588Z,11.02
2023-12-11T05:34:50.165Z,23.63
2023-12-11T05:37:53.418Z,10.43
2023-12-11T05:40:56.833Z,33.45
2023-12-11T05:44:00.252Z,29.65
2023-12-11T05:47:02.847Z,22.23
2023-12-11T05:50:05.906Z,25.75
2023-12-11T05:53:08.767Z,19.92
2023-12-11T05:56:11.446Z,12.63
2023-12-11T05:59:14.105Z,24.27
2023-12-11T06:02:17.033Z,22.52
2023-12-11T06:05:19.640Z,27.85
2023-12-11T06:08:22.137Z,18.77
2023-12-11T06:11:25.210Z,25.63
2023-12-11T06:14:27.767Z,28.45
2023-12-11T06:17:30.564Z,23.17
2023-12-11T06:20:33.328Z,34.67
2023-12-11T06:23:35.838Z,27.63
2023-12-11T06:26:43.359Z,27.25
2023-12-11T06:29:46.028Z,23.38
2023-12-11T06:32:48.566Z,21.75
2023-12-11T06:35:51.116Z,19.35
2023-12-11T06:38:53.712Z,7.20
2023-12-11T06:41:57.570Z,14.93
2023-12-11T06:45:01.501Z,31.20
2023-12-11T06:48:04.380Z,16.67
2023-12-11T06:51:06.947Z,24.35
2023-12-11T06:54:09.462Z,13.10
2023-12-11T06:57:12.687Z,10.88
2023-12-11T07:00:15.474Z,22.88
2023-12-11T07:03:18.447Z,22.55
2023-12-11T07:06:21.165Z,15.52
2023-12-11T07:09:23.947Z,28.37
2023-12-11T07:12:26.433Z,23.58
2023-12-11T07:15:28.912Z,26.45
2023-12-11T07:18:31.478Z,11.30
2023-12-11T07:21:34.135Z,26.17
2023-12-11T07:24:36.754Z,25.90
2023-12-11T07:27:39.384Z,15.05
2023-12-11T07:30:41.988Z,27.95
2023-12-11T07:33:44.675Z,29.00
2023-12-11T07:36:47.431Z,17.98
2023-12-11T07:39:50.337Z,8.50
2023-12-11T07:42:53.316Z,20.65
2023-12-11T07:45:55.938Z,6.38
2023-12-11T07:48:58.453Z,12.60
2023-12-11T07:52:02.883Z,15.52
2023-12-11T07:55:06.695Z,28.10
2023-12-11T07:58:09.363Z,18.95
2023-12-11T08:01:14.330Z,9.90
2023-12-11T08:04:17.404Z,24.05
2023-12-11T08:07:19.965Z,18.02
2023-12-11T08:10:22.695Z,13.97
2023-12-11T08:13:25.371Z,21.52
2023-12-11T08:16:27.889Z,19.40
2023-12-11T08:19:30.467Z,18.50
2023-12-11T08:22:33.057Z,12.00
2023-12-11T08:25:35.540Z,10.73
2023-12-11T08:28:38.198Z,13.18
2023-12-11T08:31:40.672Z,11.13
2023-12-11T08:34:43.504Z,4.57
2023-12-11T08:37:46.084Z,16.27
2023-12-11T08:40:48.536Z,14.47
2023-12-11T08:43:51.003Z,9.85
2023-12-11T08:46:53.434Z,12.50
2023-12-11T08:49:56.120Z,23.90
2023-12-11T08:53:00.295Z,6.53
2023-12-11T08:56:02.832Z,20.23
2023-12-11T08:59:05.336Z,6.32
2023-12-11T09:02:08.024Z,24.58
2023-12-11T09:05:10.574Z,3.78
2023-12-11T09:08:13.119Z,12.85
2023-12-11T09:11:15.646Z,2.80
2023-12-11T09:14:18.175Z,9.38
2023-12-11T09:17:20.668Z,6.85
2023-12-11T09:20:23.344Z,10.43
2023-12-11T09:23:25.992Z,6.80
2023-12-11T09:26:28.480Z,18.10
2023-12-11T09:29:30.959Z,10.63
2023-12-11T09:32:33.724Z,10.25
2023-12-11T09:35:36.380Z,10.70
2023-12-11T09:38:39.211Z,19.38
2023-12-11T09:41:44.835Z,15.40
2023-12-11T09:44:49.754Z,6.97
2023-12-11T09:48:08.000Z,19.65
2023-12-11T09:51:15.375Z,15.63
2023-12-11T09:54:18.051Z,3.40
2023-12-11T09:57:20.910Z,14.15
2023-12-11T10:00:24.057Z,11.32
2023-12-11T10:03:26.698Z,12.43
2023-12-11T10:06:29.454Z,14.13
2023-12-11T10:09:36.361Z,5.03
2023-12-11T10:12:42.035Z,19.37
2023-12-11T10:15:44.969Z,9.38
2023-12-11T10:18:50.766Z,12.77
2023-12-11T10:21:53.630Z,12.37
2023-12-11T10:24:56.961Z,4.05
2023-12-11T10:28:07.876Z,14.70
2023-12-11T10:31:11.135Z,15.13
2023-12-11T10:34:14.266Z,13.82
2023-12-11T10:37:20.648Z,9.23
2023-12-11T10:40:23.174Z,7.03
2023-12-11T10:43:25.783Z,37.00
2023-12-11T10:46:29.044Z,26.85
2023-12-11T10:49:31.854Z,7.82
2023-12-11T10:52:35.084Z,11.10
2023-12-11T10:55:39.081Z,14.95
2023-12-11T10:58:41.758Z,17.83
2023-12-11T11:01:47.120Z,8.40
2023-12-11T11:04:50.076Z,13.50
2023-12-11T11:08:03.973Z,12.90
2023-12-11T11:11:16.028Z,9.63
2023-12-11T11:14:48.568Z,11.67
2023-12-11T11:18:01.577Z,16.48
2023-12-11T11:21:12.333Z,11.30
2023-12-11T11:24:28.036Z,17.33
2023-12-11T11:27:44.613Z,3.65
2023-12-11T11:30:52.571Z,10.57
2023-12-11T11:33:57.892Z,24.15
2023-12-11T11:37:00.668Z,8.93
2023-12-11T11:40:05.592Z,7.53
2023-12-11T11:43:12.318Z,17.05
2023-12-11T11:46:14.828Z,9.97
2023-12-11T11:49:27.527Z,5.10
2023-12-11T11:52:30.301Z,13.93
2023-12-11T11:55:33.352Z,9.73
2023-12-11T11:58:35.870Z,16.27
2023-12-11T12:01:51.326Z,8.90
2023-12-11T12:04:54.267Z,13.40
2023-12-11T12:07:57.704Z,5.35
2023-12-11T12:11:00.387Z,15.15
2023-12-11T12:14:02.896Z,7.40
2023-12-11T12:17:11.177Z,13.23
2023-12-11T12:20:15.830Z,12.10
2023-12-11T12:23:21.066Z,18.83
2023-12-11T12:26:23.656Z,8.60
2023-12-11T12:29:31.607Z,9.65
2023-12-11T12:32:34.511Z,11.57
2023-12-11T12:35:38.613Z,17.00
2023-12-11T12:38:41.482Z,23.65
2023-12-11T12:41:44.034Z,9.85
2023-12-11T12:44:47.354Z,11.40
2023-12-11T12:47:49.966Z,5.67
2023-12-11T12:51:04.668Z,19.75
2023-12-11T12:54:07.224Z,6.07
2023-12-11T12:57:09.790Z,11.33
2023-12-11T13:00:21.707Z,4.90
2023-12-11T13:03:24.906Z,5.32
2023-12-11T13:06:27.729Z,6.30
2023-12-11T13:09:33.903Z,9.85
2023-12-11T13:12:37.009Z,5.50
2023-12-11T13:15:40.594Z,7.00
2023-12-11T13:18:43.251Z,6.93
2023-12-11T13:21:45.857Z,5.65
2023-12-11T13:24:48.453Z,12.18
2023-12-11T13:27:51.384Z,15.90
2023-12-11T13:30:53.891Z,9.55
2023-12-11T13:33:56.437Z,11.27
2023-12-11T13:36:59.923Z,7.88
2023-12-11T13:40:02.617Z,19.85
2023-12-11T13:43:05.361Z,18.63
2023-12-11T13:46:08.696Z,11.00
2023-12-11T13:49:11.361Z,9.03
2023-12-11T13:52:13.883Z,15.00
2023-12-11T13:55:16.360Z,21.77
2023-12-11T13:58:18.904Z,9.40
2023-12-11T14:01:21.899Z,18.27
2023-12-11T14:04:25.724Z,12.98
2023-12-11T14:07:28.537Z,22.20
2023-12-11T14:10:32.076Z,9.73
2023-12-11T14:13:34.672Z,7.40
2023-12-11T14:16:37.264Z,11.43
2023-12-11T14:19:40.878Z,26.00
2023-12-11T14:22:43.410Z,13.52
2023-12-11T14:25:45.942Z,16.67
2023-12-11T14:28:48.676Z,29.63
2023-12-11T14:31:51.159Z,19.38
2023-12-11T14:34:53.630Z,9.15
2023-12-11T14:37:56.220Z,10.75
2023-12-11T14:40:59.809Z,17.20
2023-12-11T14:44:02.277Z,26.77
2023-12-11T14:47:06.239Z,7.65
2023-12-11T14:50:09.851Z,6.77
2023-12-11T14:53:12.491Z,9.63
2023-12-11T14:56:14.972Z,19.73
2023-12-11T14:59:20.150Z,25.33
2023-12-11T15:02:22.707Z,25.42
2023-12-11T15:05:25.466Z,22.40
2023-12-11T15:08:30.178Z,29.95
2023-12-11T15:11:36.657Z,20.70
2023-12-11T15:14:39.500Z,17.58
2023-12-11T15:17:41.979Z,27.92
2023-12-11T15:20:44.620Z,18.03
2023-12-11T15:23:47.115Z,14.27
2023-12-11T15:26:50.337Z,16.98
2023-12-11T15:29:52.830Z,16.17
2023-12-11T15:32:55.266Z,18.25
2023-12-11T15:35:57.802Z,9.57
2023-12-11T15:39:00.222Z,16.63
2023-12-11T15:42:02.636Z,33.25
2023-12-11T15:45:08.897Z,21.00
2023-12-11T15:48:23.614Z,27.95
2023-12-11T15:51:27.798Z,39.50
2023-12-11T15:54:30.273Z,29.17
2023-12-11T15:57:33.168Z,28.17
2023-12-11T16:00:35.838Z,29.23
2023-12-11T16:03:41.922Z,26.60
2023-12-11T16:06:44.628Z,39.72
2023-12-11T16:09:48.354Z,26.75
2023-12-11T16:12:50.959Z,31.35
2023-12-11T16:15:53.517Z,38.65
2023-12-11T16:18:56.513Z,23.85
2023-12-11T16:21:59.160Z,32.87
2023-12-11T16:25:01.833Z,25.02
2023-12-11T16:28:04.790Z,30.20
2023-12-11T16:31:07.560Z,28.57
2023-12-11T16:34:10.078Z,26.02
2023-12-11T16:37:12.617Z,31.25
2023-12-11T16:40:15.229Z,15.35
2023-12-11T16:43:19.024Z,15.05
2023-12-11T16:46:22.208Z,26.42
2023-12-11T16:49:24.751Z,23.63
2023-12-11T16:52:27.393Z,18.67
2023-12-11T16:55:30.105Z,24.45
2023-12-11T16:58:32.947Z,14.13
2023-12-11T17:01:35.582Z,18.33
2023-12-11T17:04:38.265Z,32.75
2023-12-11T17:07:40.807Z,57.17
2023-12-11T17:10:44.325Z,33.50
2023-12-11T17:13:46.827Z,30.77
2023-12-11T17:16:49.228Z,43.65
2023-12-11T17:19:51.828Z,17.73
2023-12-11T17:22:54.267Z,17.30
2023-12-11T17:25:56.669Z,14.23
2023-12-11T17:29:00.211Z,27.35
2023-12-11T17:32:02.738Z,29.43
2023-12-11T17:35:06.411Z,31.02
2023-12-11T17:38:08.916Z,30.08
2023-12-11T17:41:11.939Z,48.85
2023-12-11T17:44:15.335Z,29.52
2023-12-11T17:47:17.824Z,51.35
2023-12-11T17:50:20.253Z,41.33
2023-12-11T17:53:22.713Z,35.13
2023-12-11T17:56:25.303Z,35.42
2023-12-11T17:59:27.727Z,105.85
2023-12-11T18:02:30.160Z,55.97
2023-12-11T18:05:32.822Z,43.95
2023-12-11T18:08:35.276Z,10.00
2023-12-11T18:11:37.999Z,30.58
2023-12-11T18:14:41.278Z,36.45
2023-12-11T18:17:43.756Z,24.48
2023-12-11T18:20:46.249Z,29.80
2023-12-11T18:23:48.670Z,36.47
2023-12-11T18:26:51.130Z,24.98
2023-12-11T18:29:53.687Z,41.40
2023-12-11T18:32:56.206Z,45.63
2023-12-11T18:35:59.296Z,39.28
2023-12-11T18:39:01.744Z,29.02
2023-12-11T18:42:04.414Z,50.33
2023-12-11T18:45:07.679Z,28.55
2023-12-11T18:48:10.451Z,36.78
2023-12-11T18:51:22.905Z,38.08
2023-12-11T18:54:25.388Z,37.03
2023-12-11T18:57:28.226Z,45.15
2023-12-11T19:00:30.998Z,73.82
2023-12-11T19:03:33.861Z,44.93
2023-12-11T19:06:37.129Z,48.15
2023-12-11T19:09:39.592Z,40.08
2023-12-11T19:12:42.069Z,31.92
2023-12-11T19:15:44.909Z,36.50
2023-12-11T19:18:47.812Z,33.17
2023-12-11T19:21:51.941Z,51.88
2023-12-11T19:24:54.522Z,44.17
2023-12-11T19:27:57.113Z,25.30
2023-12-11T19:30:59.548Z,32.47
2023-12-11T19:34:02.354Z,37.77
2023-12-11T19:37:05.571Z,47.13
2023-12-11T19:40:08.827Z,33.10
2023-12-11T19:43:13.266Z,37.28
2023-12-11T19:46:16.081Z,29.95
2023-12-11T19:49:18.812Z,26.85
2023-12-11T19:52:21.649Z,24.33
2023-12-11T19:55:24.325Z,29.57
2023-12-11T19:58:27.010Z,37.40
2023-12-11T20:01:31.882Z,32.22
2023-12-11T20:04:34.804Z,36.90
2023-12-11T20:07:37.567Z,27.52
2023-12-11T20:10:40.587Z,29.83
2023-12-11T20:13:43.334Z,34.20
2023-12-11T20:16:45.804Z,34.78
2023-12-11T20:19:48.367Z,27.30
2023-12-11T20:22:50.810Z,25.27
2023-12-11T20:25:53.317Z,31.97
2023-12-11T20:28:55.849Z,30.92
2023-12-11T20:31:58.301Z,34.83
2023-12-11T20:35:00.939Z,39.43
2023-12-11T20:38:04.184Z,28.15
2023-12-11T20:41:06.753Z,27.90
2023-12-11T20:44:09.643Z,38.92
2023-12-11T20:47:12.075Z,32.25
2023-12-11T20:50:14.510Z,40.63
2023-12-11T20:53:16.993Z,30.33
2023-12-11T20:56:20.753Z,36.00
2023-12-11T20:59:23.165Z,37.20
2023-12-11T21:02:26.986Z,33.88
2023-12-11T21:05:29.463Z,34.30
2023-12-11T21:08:31.998Z,44.30
2023-12-11T21:11:38.660Z,40.53
2023-12-11T21:14:41.448Z,49.33
2023-12-11T21:17:44.021Z,29.08
2023-12-11T21:20:46.470Z,53.83
2023-12-11T21:23:49.944Z,46.03
2023-12-11T21:26:52.730Z,31.87
2023-12-11T21:29:55.130Z,40.08
2023-12-11T21:32:58.100Z,38.35
2023-12-11T21:36:00.567Z,32.57
2023-12-11T21:39:03.467Z,34.80
2023-12-11T21:42:06.193Z,45.85
2023-12-11T21:45:08.874Z,30.35
2023-12-11T21:48:11.426Z,44.95
2023-12-11T21:51:19.047Z,24.75
2023-12-11T21:54:22.765Z,42.30
2023-12-11T21:57:25.235Z,50.10
2023-12-11T22:00:27.681Z,25.08
2023-12-11T22:03:30.111Z,37.15
2023-12-11T22:06:34.437Z,40.50
2023-12-11T22:09:36.862Z,35.30
2023-12-11T22:12:39.249Z,33.50
2023-12-11T22:15:41.709Z,41.25
2023-12-11T22:18:46.867Z,35.38
2023-12-11T22:21:49.326Z,39.03
2023-12-11T22:24:51.738Z,32.92
2023-12-11T22:27:54.262Z,45.17
2023-12-11T22:30:57.170Z,42.50
2023-12-11T22:33:59.822Z,35.50
2023-12-11T22:37:02.342Z,55.37
2023-12-11T22:40:06.733Z,40.42
2023-12-11T22:43:09.213Z,22.40
2023-12-11T22:46:11.677Z,27.45
2023-12-11T22:49:14.403Z,26.42
2023-12-11T22:52:17.055Z,24.38
2023-12-11T22:55:19.452Z,24.05
2023-12-11T22:58:21.861Z,18.80
2023-12-11T23:01:24.714Z,38.22
2023-12-11T23:04:27.253Z,25.27
2023-12-11T23:07:30.012Z,28.07
2023-12-11T23:10:33.070Z,38.50
2023-12-11T23:13:35.551Z,52.30
2023-12-11T23:16:38.151Z,35.75
2023-12-11T23:19:41.363Z,43.95
2023-12-11T23:22:44.497Z,41.83
2023-12-11T23:25:54.545Z,42.60
2023-12-11T23:29:01.375Z,33.83
2023-12-11T23:32:04.063Z,45.58
2023-12-11T23:35:06.668Z,42.40
2023-12-11T23:38:09.029Z,30.37
2023-12-11T23:41:11.506Z,48.70
2023-12-11T23:44:13.924Z,34.92
2023-12-11T23:47:16.429Z,31.88
2023-12-11T23:50:19.126Z,31.33
2023-12-11T23:53:21.608Z,22.45
2023-12-11T23:56:24.291Z,31.15
2023-12-11T23:59:27.633Z,23.97
